sensor_id;sensor_type;location;lat;lon;timestamp;noise_LAeq;noise_LA_min;noise_LA_max;noise_LA01;noise_LA95
11999;Laerm;40817;51.520;9.954;2024-02-21T00:02:25;42.57;38.81;52.39;;
11999;Laerm;40817;51.520;9.954;2024-02-21T00:04:54;43.36;40.13;56.90;;
11999;Laerm;40817;51.520;9.954;2024-02-21T00:07:21;43.18;39.46;58.06;;
11999;Laerm;40817;51.520;9.954;2024-02-21T00:09:48;45.30;40.71;59.31;;
11999;Laerm;40817;51.520;9.954;2024-02-21T00:12:15;45.41;40.89;64.73;;
11999;Laerm;40817;51.520;9.954;2024-02-21T00:14:43;46.45;40.53;65.71;;
11999;Laerm;40817;51.520;9.954;2024-02-21T00:17:10;49.67;43.09;65.33;;
11999;Laerm;40817;51.520;9.954;2024-02-21T00:19:37;48.37;40.80;70.02;;
11999;Laerm;40817;51.520;9.954;2024-02-21T00:22:06;45.21;39.81;70.40;;
11999;Laerm;40817;51.520;9.954;2024-02-21T00:24:34;44.62;40.62;65.73;;
11999;Laerm;40817;51.520;9.954;2024-02-21T00:27:01;43.63;39.81;63.75;;
11999;Laerm;40817;51.520;9.954;2024-02-21T00:29:29;43.09;39.21;49.38;;
11999;Laerm;40817;51.520;9.954;2024-02-21T00:31:56;43.78;38.81;45.77;;
11999;Laerm;40817;51.520;9.954;2024-02-21T00:34:23;44.16;40.89;54.00;;
11999;Laerm;40817;51.520;9.954;2024-02-21T00:36:51;43.66;40.80;50.75;;
11999;Laerm;40817;51.520;9.954;2024-02-21T00:39:19;43.87;40.62;52.86;;
11999;Laerm;40817;51.520;9.954;2024-02-21T00:41:46;43.11;39.58;52.38;;
11999;Laerm;40817;51.520;9.954;2024-02-21T00:44:14;42.69;39.70;58.81;;
11999;Laerm;40817;51.520;9.954;2024-02-21T00:46:41;42.62;39.08;45.20;;
11999;Laerm;40817;51.520;9.954;2024-02-21T00:49:08;43.50;39.81;45.51;;
11999;Laerm;40817;51.520;9.954;2024-02-21T00:51:35;43.75;40.53;47.18;;
11999;Laerm;40817;51.520;9.954;2024-02-21T00:54:03;43.55;40.13;45.36;;
11999;Laerm;40817;51.520;9.954;2024-02-21T00:56:31;43.25;40.33;47.18;;
11999;Laerm;40817;51.520;9.954;2024-02-21T00:58:59;43.31;39.81;45.54;;
11999;Laerm;40817;51.520;9.954;2024-02-21T01:01:26;43.41;39.99;55.63;;
11999;Laerm;40817;51.520;9.954;2024-02-21T01:03:53;43.49;39.92;45.39;;
11999;Laerm;40817;51.520;9.954;2024-02-21T01:06:21;43.82;40.80;55.43;;
11999;Laerm;40817;51.520;9.954;2024-02-21T01:08:48;43.92;40.43;53.24;;
11999;Laerm;40817;51.520;9.954;2024-02-21T01:11:16;44.04;40.33;48.48;;
11999;Laerm;40817;51.520;9.954;2024-02-21T01:13:45;44.26;40.71;57.79;;
11999;Laerm;40817;51.520;9.954;2024-02-21T01:16:12;43.62;40.53;45.63;;
11999;Laerm;40817;51.520;9.954;2024-02-21T01:18:39;43.33;40.13;45.39;;
11999;Laerm;40817;51.520;9.954;2024-02-21T01:21:07;44.07;40.88;49.47;;
11999;Laerm;40817;51.520;9.954;2024-02-21T01:23:36;43.39;40.03;45.63;;
11999;Laerm;40817;51.520;9.954;2024-02-21T01:26:04;44.00;40.03;58.41;;
11999;Laerm;40817;51.520;9.954;2024-02-21T01:28:34;43.41;40.23;45.36;;
11999;Laerm;40817;51.520;9.954;2024-02-21T01:31:03;43.18;39.81;45.33;;
11999;Laerm;40817;51.520;9.954;2024-02-21T01:33:30;42.97;39.70;44.94;;
11999;Laerm;40817;51.520;9.954;2024-02-21T01:36:01;43.61;40.43;45.80;;
11999;Laerm;40817;51.520;9.954;2024-02-21T01:38:28;43.65;40.53;47.26;;
11999;Laerm;40817;51.520;9.954;2024-02-21T01:40:56;43.52;40.23;45.83;;
11999;Laerm;40817;51.520;9.954;2024-02-21T01:43:23;43.64;39.81;45.77;;
11999;Laerm;40817;51.520;9.954;2024-02-21T01:45:53;43.67;40.98;45.89;;
11999;Laerm;40817;51.520;9.954;2024-02-21T01:48:23;43.74;40.53;50.03;;
11999;Laerm;40817;51.520;9.954;2024-02-21T01:50:53;43.44;39.68;45.48;;
11999;Laerm;40817;51.520;9.954;2024-02-21T01:53:31;43.61;39.92;47.54;;
11999;Laerm;40817;51.520;9.954;2024-02-21T01:56:00;43.22;40.13;45.17;;
11999;Laerm;40817;51.520;9.954;2024-02-21T01:58:27;42.84;39.81;45.04;;
11999;Laerm;40817;51.520;9.954;2024-02-21T02:00:57;43.19;40.13;46.25;;
11999;Laerm;40817;51.520;9.954;2024-02-21T02:03:26;44.39;40.13;55.33;;
11999;Laerm;40817;51.520;9.954;2024-02-21T02:05:54;43.77;40.33;46.10;;
11999;Laerm;40817;51.520;9.954;2024-02-21T02:08:22;43.50;40.23;45.42;;
11999;Laerm;40817;51.520;9.954;2024-02-21T02:10:49;43.70;40.71;47.48;;
11999;Laerm;40817;51.520;9.954;2024-02-21T02:13:17;43.47;40.03;45.83;;
11999;Laerm;40817;51.520;9.954;2024-02-21T02:15:47;43.39;40.62;45.72;;
11999;Laerm;40817;51.520;9.954;2024-02-21T02:18:16;43.93;40.53;48.47;;
11999;Laerm;40817;51.520;9.954;2024-02-21T02:20:45;43.11;39.46;45.20;;
11999;Laerm;40817;51.520;9.954;2024-02-21T02:23:24;43.61;40.43;48.46;;
11999;Laerm;40817;51.520;9.954;2024-02-21T02:25:51;43.16;39.58;45.27;;
11999;Laerm;40817;51.520;9.954;2024-02-21T02:28:19;43.57;40.03;51.98;;
11999;Laerm;40817;51.520;9.954;2024-02-21T02:30:47;43.34;40.08;45.89;;
11999;Laerm;40817;51.520;9.954;2024-02-21T02:33:15;43.30;40.03;45.17;;
11999;Laerm;40817;51.520;9.954;2024-02-21T02:35:44;43.24;39.46;45.94;;
11999;Laerm;40817;51.520;9.954;2024-02-21T02:38:11;43.05;39.58;44.92;;
11999;Laerm;40817;51.520;9.954;2024-02-21T02:40:42;43.16;39.81;45.45;;
11999;Laerm;40817;51.520;9.954;2024-02-21T02:43:09;43.97;40.23;51.74;;
11999;Laerm;40817;51.520;9.954;2024-02-21T02:45:36;43.39;40.43;46.40;;
11999;Laerm;40817;51.520;9.954;2024-02-21T02:48:05;43.66;40.53;46.02;;
11999;Laerm;40817;51.520;9.954;2024-02-21T02:50:32;43.27;39.70;47.54;;
11999;Laerm;40817;51.520;9.954;2024-02-21T02:52:59;43.16;39.70;56.55;;
11999;Laerm;40817;51.520;9.954;2024-02-21T02:55:27;43.36;39.70;45.63;;
11999;Laerm;40817;51.520;9.954;2024-02-21T02:57:55;43.80;40.13;52.36;;
11999;Laerm;40817;51.520;9.954;2024-02-21T03:00:23;42.98;39.21;44.97;;
11999;Laerm;40817;51.520;9.954;2024-02-21T03:02:50;43.26;40.33;45.45;;
11999;Laerm;40817;51.520;9.954;2024-02-21T03:05:18;44.22;41.14;47.86;;
11999;Laerm;40817;51.520;9.954;2024-02-21T03:07:46;43.31;39.81;45.23;;
11999;Laerm;40817;51.520;9.954;2024-02-21T03:10:14;43.68;40.13;45.89;;
11999;Laerm;40817;51.520;9.954;2024-02-21T03:12:42;43.09;39.58;45.33;;
11999;Laerm;40817;51.520;9.954;2024-02-21T03:15:12;43.46;40.13;46.33;;
11999;Laerm;40817;51.520;9.954;2024-02-21T03:17:39;43.73;40.98;47.12;;
11999;Laerm;40817;51.520;9.954;2024-02-21T03:20:08;44.65;41.14;55.41;;
11999;Laerm;40817;51.520;9.954;2024-02-21T03:22:36;45.50;41.68;61.15;;
11999;Laerm;40817;51.520;9.954;2024-02-21T03:25:05;43.98;39.92;55.48;;
11999;Laerm;40817;51.520;9.954;2024-02-21T03:27:32;43.08;39.70;45.36;;
11999;Laerm;40817;51.520;9.954;2024-02-21T03:30:00;42.60;39.34;44.80;;
11999;Laerm;40817;51.520;9.954;2024-02-21T03:32:28;42.67;38.81;44.94;;
11999;Laerm;40817;51.520;9.954;2024-02-21T03:34:56;42.99;38.81;45.77;;
11999;Laerm;40817;51.520;9.954;2024-02-21T03:37:23;44.24;38.95;61.19;;
11999;Laerm;40817;51.520;9.954;2024-02-21T03:39:50;43.58;39.34;58.01;;
11999;Laerm;40817;51.520;9.954;2024-02-21T03:42:18;43.00;39.46;45.30;;
11999;Laerm;40817;51.520;9.954;2024-02-21T03:44:45;43.00;39.46;44.87;;
11999;Laerm;40817;51.520;9.954;2024-02-21T03:47:12;43.62;40.80;45.54;;
11999;Laerm;40817;51.520;9.954;2024-02-21T03:49:41;43.40;40.33;46.76;;
11999;Laerm;40817;51.520;9.954;2024-02-21T03:52:08;43.68;40.33;47.72;;
11999;Laerm;40817;51.520;9.954;2024-02-21T03:54:36;43.72;40.23;45.86;;
11999;Laerm;40817;51.520;9.954;2024-02-21T03:57:05;43.53;40.71;45.77;;
11999;Laerm;40817;51.520;9.954;2024-02-21T03:59:32;43.79;40.33;48.45;;
11999;Laerm;40817;51.520;9.954;2024-02-21T04:02:00;43.43;39.92;51.91;;
11999;Laerm;40817;51.520;9.954;2024-02-21T04:04:27;43.09;39.58;45.07;;
11999;Laerm;40817;51.520;9.954;2024-02-21T04:06:55;43.17;39.92;44.87;;
11999;Laerm;40817;51.520;9.954;2024-02-21T04:09:23;43.30;40.03;45.33;;
11999;Laerm;40817;51.520;9.954;2024-02-21T04:11:50;44.22;40.80;57.02;;
11999;Laerm;40817;51.520;9.954;2024-02-21T04:14:18;43.40;40.53;45.36;;
11999;Laerm;40817;51.520;9.954;2024-02-21T04:16:45;43.49;40.43;45.63;;
11999;Laerm;40817;51.520;9.954;2024-02-21T04:19:12;43.49;39.34;45.48;;
11999;Laerm;40817;51.520;9.954;2024-02-21T04:21:39;43.54;40.03;45.42;;
11999;Laerm;40817;51.520;9.954;2024-02-21T04:24:11;43.50;40.53;45.80;;
11999;Laerm;40817;51.520;9.954;2024-02-21T04:26:38;43.68;40.71;45.89;;
11999;Laerm;40817;51.520;9.954;2024-02-21T04:29:06;44.03;40.23;49.18;;
11999;Laerm;40817;51.520;9.954;2024-02-21T04:31:33;43.51;40.33;52.76;;
11999;Laerm;40817;51.520;9.954;2024-02-21T04:34:01;43.59;40.80;48.34;;
11999;Laerm;40817;51.520;9.954;2024-02-21T04:36:30;43.96;40.53;49.03;;
11999;Laerm;40817;51.520;9.954;2024-02-21T04:38:57;44.11;40.43;50.79;;
11999;Laerm;40817;51.520;9.954;2024-02-21T04:41:26;43.63;40.71;45.45;;
11999;Laerm;40817;51.520;9.954;2024-02-21T04:43:53;43.88;40.62;46.05;;
11999;Laerm;40817;51.520;9.954;2024-02-21T04:46:20;43.77;40.80;45.48;;
11999;Laerm;40817;51.520;9.954;2024-02-21T04:48:48;43.70;40.89;45.77;;
11999;Laerm;40817;51.520;9.954;2024-02-21T04:51:15;44.06;41.38;48.31;;
11999;Laerm;40817;51.520;9.954;2024-02-21T04:53:42;43.78;41.14;51.24;;
11999;Laerm;40817;51.520;9.954;2024-02-21T04:56:10;43.73;41.06;51.82;;
11999;Laerm;40817;51.520;9.954;2024-02-21T04:58:39;44.20;40.98;51.22;;
11999;Laerm;40817;51.520;9.954;2024-02-21T05:01:07;43.92;41.14;54.98;;
11999;Laerm;40817;51.520;9.954;2024-02-21T05:03:34;44.09;41.06;47.70;;
11999;Laerm;40817;51.520;9.954;2024-02-21T05:06:02;43.70;40.80;47.38;;
11999;Laerm;40817;51.520;9.954;2024-02-21T05:08:29;43.80;40.43;46.15;;
11999;Laerm;40817;51.520;9.954;2024-02-21T05:10:56;44.06;41.06;46.30;;
11999;Laerm;40817;51.520;9.954;2024-02-21T05:13:24;44.20;41.75;46.73;;
11999;Laerm;40817;51.520;9.954;2024-02-21T05:15:53;43.89;40.71;45.70;;
11999;Laerm;40817;51.520;9.954;2024-02-21T05:18:20;47.00;41.68;60.02;;
11999;Laerm;40817;51.520;9.954;2024-02-21T05:20:47;44.22;41.06;58.95;;
11999;Laerm;40817;51.520;9.954;2024-02-21T05:23:14;43.73;40.71;45.36;;
11999;Laerm;40817;51.520;9.954;2024-02-21T05:25:42;44.30;41.30;48.26;;
11999;Laerm;40817;51.520;9.954;2024-02-21T05:28:09;44.21;41.46;50.53;;
11999;Laerm;40817;51.520;9.954;2024-02-21T05:30:36;60.21;41.22;71.81;;
11999;Laerm;40817;51.520;9.954;2024-02-21T05:33:08;43.95;41.14;51.86;;
11999;Laerm;40817;51.520;9.954;2024-02-21T05:35:35;44.25;41.46;53.42;;
11999;Laerm;40817;51.520;9.954;2024-02-21T05:38:03;44.27;41.68;56.77;;
11999;Laerm;40817;51.520;9.954;2024-02-21T05:40:32;44.23;41.53;55.29;;
11999;Laerm;40817;51.520;9.954;2024-02-21T05:42:59;44.25;41.82;47.10;;
11999;Laerm;40817;51.520;9.954;2024-02-21T05:45:27;44.52;41.61;50.17;;
11999;Laerm;40817;51.520;9.954;2024-02-21T05:47:54;44.55;41.89;50.08;;
11999;Laerm;40817;51.520;9.954;2024-02-21T05:50:24;44.25;41.53;47.81;;
11999;Laerm;40817;51.520;9.954;2024-02-21T05:52:53;44.32;41.38;52.64;;
11999;Laerm;40817;51.520;9.954;2024-02-21T05:55:21;44.53;41.30;56.07;;
11999;Laerm;40817;51.520;9.954;2024-02-21T05:57:48;44.50;41.75;58.47;;
11999;Laerm;40817;51.520;9.954;2024-02-21T06:00:16;44.40;41.61;55.97;;
11999;Laerm;40817;51.520;9.954;2024-02-21T06:02:44;44.74;42.22;54.89;;
11999;Laerm;40817;51.520;9.954;2024-02-21T06:05:11;44.53;42.03;50.28;;
11999;Laerm;40817;51.520;9.954;2024-02-21T06:07:40;44.40;41.96;53.55;;
11999;Laerm;40817;51.520;9.954;2024-02-21T06:10:08;44.91;42.41;57.38;;
11999;Laerm;40817;51.520;9.954;2024-02-21T06:12:35;44.91;42.29;51.25;;
11999;Laerm;40817;51.520;9.954;2024-02-21T06:15:04;45.80;40.13;63.53;;
11999;Laerm;40817;51.520;9.954;2024-02-21T06:17:32;46.27;42.65;60.00;;
11999;Laerm;40817;51.520;9.954;2024-02-21T06:19:59;46.13;41.68;56.84;;
11999;Laerm;40817;51.520;9.954;2024-02-21T06:22:26;44.52;42.16;50.50;;
11999;Laerm;40817;51.520;9.954;2024-02-21T06:24:55;44.79;41.96;52.88;;
11999;Laerm;40817;51.520;9.954;2024-02-21T06:27:22;44.74;41.96;54.25;;
11999;Laerm;40817;51.520;9.954;2024-02-21T06:29:50;49.06;42.16;68.79;;
11999;Laerm;40817;51.520;9.954;2024-02-21T06:32:17;45.72;42.41;59.94;;
11999;Laerm;40817;51.520;9.954;2024-02-21T06:34:44;48.62;43.44;60.95;;
11999;Laerm;40817;51.520;9.954;2024-02-21T06:37:12;47.51;42.93;56.02;;
11999;Laerm;40817;51.520;9.954;2024-02-21T06:39:39;46.24;41.82;54.90;;
11999;Laerm;40817;51.520;9.954;2024-02-21T06:42:08;50.07;42.47;61.56;;
11999;Laerm;40817;51.520;9.954;2024-02-21T06:44:35;50.33;44.35;59.96;;
11999;Laerm;40817;51.520;9.954;2024-02-21T06:47:06;48.92;42.88;59.35;;
11999;Laerm;40817;51.520;9.954;2024-02-21T06:49:34;47.32;43.34;57.11;;
11999;Laerm;40817;51.520;9.954;2024-02-21T06:52:04;50.34;42.16;58.30;;
11999;Laerm;40817;51.520;9.954;2024-02-21T06:54:31;51.56;42.82;61.00;;
11999;Laerm;40817;51.520;9.954;2024-02-21T06:56:58;49.85;43.44;65.72;;
11999;Laerm;40817;51.520;9.954;2024-02-21T06:59:27;48.50;43.77;66.08;;
11999;Laerm;40817;51.520;9.954;2024-02-21T07:01:55;48.41;43.34;63.13;;
11999;Laerm;40817;51.520;9.954;2024-02-21T07:04:22;46.03;41.89;59.88;;
11999;Laerm;40817;51.520;9.954;2024-02-21T07:06:49;45.67;42.22;57.26;;
11999;Laerm;40817;51.520;9.954;2024-02-21T07:09:17;45.04;41.94;53.88;;
11999;Laerm;40817;51.520;9.954;2024-02-21T07:11:44;45.19;41.96;56.58;;
11999;Laerm;40817;51.520;9.954;2024-02-21T07:14:13;47.45;42.41;57.92;;
11999;Laerm;40817;51.520;9.954;2024-02-21T07:16:42;53.18;45.07;67.28;;
11999;Laerm;40817;51.520;9.954;2024-02-21T07:19:09;49.82;44.35;69.72;;
11999;Laerm;40817;51.520;9.954;2024-02-21T07:21:37;49.46;44.31;64.36;;
11999;Laerm;40817;51.520;9.954;2024-02-21T07:24:07;49.36;43.81;66.19;;
11999;Laerm;40817;51.520;9.954;2024-02-21T07:26:34;47.87;43.49;59.30;;
11999;Laerm;40817;51.520;9.954;2024-02-21T07:29:02;50.60;43.99;65.52;;
11999;Laerm;40817;51.520;9.954;2024-02-21T07:31:29;50.53;43.86;67.46;;
11999;Laerm;40817;51.520;9.954;2024-02-21T07:33:57;50.96;43.58;69.94;;
11999;Laerm;40817;51.520;9.954;2024-02-21T07:36:30;51.86;44.07;62.97;;
11999;Laerm;40817;51.520;9.954;2024-02-21T07:38:57;48.49;43.86;65.90;;
11999;Laerm;40817;51.520;9.954;2024-02-21T07:41:25;48.39;43.24;63.52;;
11999;Laerm;40817;51.520;9.954;2024-02-21T07:43:52;50.52;44.07;69.26;;
11999;Laerm;40817;51.520;9.954;2024-02-21T07:46:20;54.85;43.99;67.96;;
11999;Laerm;40817;51.520;9.954;2024-02-21T07:48:47;49.16;42.65;60.81;;
11999;Laerm;40817;51.520;9.954;2024-02-21T07:51:16;52.89;43.72;65.75;;
11999;Laerm;40817;51.520;9.954;2024-02-21T07:53:45;56.16;43.54;71.94;;
11999;Laerm;40817;51.520;9.954;2024-02-21T07:56:13;48.21;43.99;64.35;;
11999;Laerm;40817;51.520;9.954;2024-02-21T07:58:41;63.75;43.77;72.75;;
11999;Laerm;40817;51.520;9.954;2024-02-21T08:01:09;65.26;42.53;77.08;;
11999;Laerm;40817;51.520;9.954;2024-02-21T08:03:37;52.13;43.77;73.09;;
11999;Laerm;40817;51.520;9.954;2024-02-21T08:06:04;51.77;43.72;71.70;;
11999;Laerm;40817;51.520;9.954;2024-02-21T08:08:33;50.49;44.15;69.28;;
11999;Laerm;40817;51.520;9.954;2024-02-21T08:11:00;47.18;43.14;67.35;;
11999;Laerm;40817;51.520;9.954;2024-02-21T08:13:28;49.22;43.28;69.11;;
11999;Laerm;40817;51.520;9.954;2024-02-21T08:15:55;47.30;43.24;69.67;;
11999;Laerm;40817;51.520;9.954;2024-02-21T08:18:23;49.33;43.39;70.17;;
11999;Laerm;40817;51.520;9.954;2024-02-21T08:20:50;50.57;43.81;69.06;;
11999;Laerm;40817;51.520;9.954;2024-02-21T08:23:18;49.01;43.19;71.32;;
11999;Laerm;40817;51.520;9.954;2024-02-21T08:25:47;47.58;42.41;68.02;;
11999;Laerm;40817;51.520;9.954;2024-02-21T08:28:14;48.45;43.54;64.81;;
11999;Laerm;40817;51.520;9.954;2024-02-21T08:30:42;46.34;43.19;52.84;;
11999;Laerm;40817;51.520;9.954;2024-02-21T08:33:15;47.21;42.41;65.99;;
11999;Laerm;40817;51.520;9.954;2024-02-21T08:35:42;48.55;43.68;71.65;;
11999;Laerm;40817;51.520;9.954;2024-02-21T08:38:10;48.87;42.09;66.22;;
11999;Laerm;40817;51.520;9.954;2024-02-21T08:40:37;47.91;43.29;68.55;;
11999;Laerm;40817;51.520;9.954;2024-02-21T08:43:05;58.78;42.82;82.86;;
11999;Laerm;40817;51.520;9.954;2024-02-21T08:45:33;61.20;45.17;83.22;;
11999;Laerm;40817;51.520;9.954;2024-02-21T08:48:00;56.32;44.19;78.32;;
11999;Laerm;40817;51.520;9.954;2024-02-21T08:50:27;47.83;42.88;63.29;;
11999;Laerm;40817;51.520;9.954;2024-02-21T08:52:55;46.79;42.71;63.30;;
11999;Laerm;40817;51.520;9.954;2024-02-21T08:55:22;45.81;41.53;59.83;;
11999;Laerm;40817;51.520;9.954;2024-02-21T08:57:49;44.80;41.06;60.74;;
11999;Laerm;40817;51.520;9.954;2024-02-21T09:00:19;44.12;41.75;48.99;;
11999;Laerm;40817;51.520;9.954;2024-02-21T09:02:52;44.72;40.43;61.92;;
11999;Laerm;40817;51.520;9.954;2024-02-21T09:05:21;47.82;41.82;67.77;;
11999;Laerm;40817;51.520;9.954;2024-02-21T09:08:02;44.87;41.30;62.26;;
11999;Laerm;40817;51.520;9.954;2024-02-21T09:10:30;44.25;41.96;54.60;;
11999;Laerm;40817;51.520;9.954;2024-02-21T09:12:57;46.02;41.75;55.23;;
11999;Laerm;40817;51.520;9.954;2024-02-21T09:15:26;58.15;42.76;70.32;;
11999;Laerm;40817;51.520;9.954;2024-02-21T09:17:53;55.51;43.99;67.69;;
11999;Laerm;40817;51.520;9.954;2024-02-21T09:20:20;56.01;43.29;70.62;;
11999;Laerm;40817;51.520;9.954;2024-02-21T09:22:47;47.45;42.03;56.52;;
11999;Laerm;40817;51.520;9.954;2024-02-21T09:25:15;44.95;41.61;61.63;;
11999;Laerm;40817;51.520;9.954;2024-02-21T09:27:44;44.14;40.71;54.36;;
11999;Laerm;40817;51.520;9.954;2024-02-21T09:30:12;44.52;41.30;57.99;;
11999;Laerm;40817;51.520;9.954;2024-02-21T09:32:41;53.02;41.89;80.47;;
11999;Laerm;40817;51.520;9.954;2024-02-21T09:35:09;49.73;43.04;71.83;;
11999;Laerm;40817;51.520;9.954;2024-02-21T09:37:38;49.11;42.35;71.00;;
11999;Laerm;40817;51.520;9.954;2024-02-21T09:40:07;50.29;42.98;74.72;;
11999;Laerm;40817;51.520;9.954;2024-02-21T09:42:38;48.31;42.53;64.98;;
11999;Laerm;40817;51.520;9.954;2024-02-21T09:45:24;48.16;43.39;63.99;;
11999;Laerm;40817;51.520;9.954;2024-02-21T09:50:56;47.31;43.04;59.70;;
11999;Laerm;40817;51.520;9.954;2024-02-21T09:53:25;49.08;43.39;62.71;;
11999;Laerm;40817;51.520;9.954;2024-02-21T09:55:53;47.09;43.34;61.26;;
11999;Laerm;40817;51.520;9.954;2024-02-21T09:58:22;46.15;42.76;56.29;;
11999;Laerm;40817;51.520;9.954;2024-02-21T10:00:52;46.32;42.82;55.16;;
11999;Laerm;40817;51.520;9.954;2024-02-21T10:03:20;48.45;42.88;60.51;;
11999;Laerm;40817;51.520;9.954;2024-02-21T10:05:48;49.14;43.39;72.86;;
11999;Laerm;40817;51.520;9.954;2024-02-21T10:08:16;53.40;43.94;61.20;;
11999;Laerm;40817;51.520;9.954;2024-02-21T10:10:45;48.38;41.53;65.96;;
11999;Laerm;40817;51.520;9.954;2024-02-21T10:13:25;44.96;42.03;55.59;;
11999;Laerm;40817;51.520;9.954;2024-02-21T10:16:05;48.03;42.09;60.76;;
11999;Laerm;40817;51.520;9.954;2024-02-21T10:18:35;51.84;46.45;62.26;;
11999;Laerm;40817;51.520;9.954;2024-02-21T10:21:04;50.43;42.88;68.08;;
11999;Laerm;40817;51.520;9.954;2024-02-21T10:23:53;48.48;42.98;66.60;;
11999;Laerm;40817;51.520;9.954;2024-02-21T10:26:21;47.65;42.65;72.17;;
11999;Laerm;40817;51.520;9.954;2024-02-21T10:28:49;47.40;42.22;61.15;;
11999;Laerm;40817;51.520;9.954;2024-02-21T10:31:25;49.11;41.82;74.60;;
11999;Laerm;40817;51.520;9.954;2024-02-21T10:33:59;44.34;41.96;56.37;;
11999;Laerm;40817;51.520;9.954;2024-02-21T10:36:29;44.97;41.94;55.75;;
11999;Laerm;40817;51.520;9.954;2024-02-21T10:38:56;49.41;42.09;64.07;;
11999;Laerm;40817;51.520;9.954;2024-02-21T10:41:24;51.92;46.76;66.15;;
11999;Laerm;40817;51.520;9.954;2024-02-21T10:43:54;49.34;44.23;60.51;;
11999;Laerm;40817;51.520;9.954;2024-02-21T10:46:23;46.29;42.65;58.89;;
11999;Laerm;40817;51.520;9.954;2024-02-21T10:49:03;46.20;42.76;63.48;;
11999;Laerm;40817;51.520;9.954;2024-02-21T10:51:34;48.06;43.19;63.77;;
11999;Laerm;40817;51.520;9.954;2024-02-21T10:54:32;48.81;43.44;63.69;;
11999;Laerm;40817;51.520;9.954;2024-02-21T10:57:03;49.23;44.07;58.59;;
11999;Laerm;40817;51.520;9.954;2024-02-21T10:59:31;50.73;44.47;66.48;;
11999;Laerm;40817;51.520;9.954;2024-02-21T11:01:59;55.02;45.48;62.84;;
11999;Laerm;40817;51.520;9.954;2024-02-21T11:04:28;50.03;42.98;63.63;;
11999;Laerm;40817;51.520;9.954;2024-02-21T11:06:58;50.37;43.99;67.21;;
11999;Laerm;40817;51.520;9.954;2024-02-21T11:09:31;52.08;42.65;65.47;;
11999;Laerm;40817;51.520;9.954;2024-02-21T11:12:01;52.20;43.72;68.23;;
11999;Laerm;40817;51.520;9.954;2024-02-21T11:14:29;46.94;42.53;57.89;;
11999;Laerm;40817;51.520;9.954;2024-02-21T11:16:59;47.60;41.53;64.97;;
11999;Laerm;40817;51.520;9.954;2024-02-21T11:19:29;46.70;42.16;60.36;;
11999;Laerm;40817;51.520;9.954;2024-02-21T11:21:57;45.42;42.35;57.25;;
11999;Laerm;40817;51.520;9.954;2024-02-21T11:24:28;47.10;41.89;64.24;;
11999;Laerm;40817;51.520;9.954;2024-02-21T11:26:56;45.45;41.82;54.68;;
11999;Laerm;40817;51.520;9.954;2024-02-21T11:29:40;44.40;41.61;55.32;;
11999;Laerm;40817;51.520;9.954;2024-02-21T11:32:10;44.45;40.89;57.49;;
11999;Laerm;40817;51.520;9.954;2024-02-21T11:34:39;43.86;41.22;52.26;;
11999;Laerm;40817;51.520;9.954;2024-02-21T11:37:14;43.90;41.30;51.13;;
11999;Laerm;40817;51.520;9.954;2024-02-21T11:39:42;55.42;41.75;69.86;;
11999;Laerm;40817;51.520;9.954;2024-02-21T11:42:10;44.35;41.81;54.76;;
11999;Laerm;40817;51.520;9.954;2024-02-21T11:44:39;45.61;41.53;63.45;;
11999;Laerm;40817;51.520;9.954;2024-02-21T11:47:09;44.66;41.75;61.75;;
11999;Laerm;40817;51.520;9.954;2024-02-21T11:49:43;44.88;41.22;61.46;;
11999;Laerm;40817;51.520;9.954;2024-02-21T11:52:12;43.83;41.30;57.74;;
11999;Laerm;40817;51.520;9.954;2024-02-21T11:54:41;44.15;41.46;49.16;;
11999;Laerm;40817;51.520;9.954;2024-02-21T11:57:09;45.82;40.71;59.32;;
11999;Laerm;40817;51.520;9.954;2024-02-21T11:59:37;44.77;41.48;55.84;;
11999;Laerm;40817;51.520;9.954;2024-02-21T12:02:04;44.32;41.14;54.24;;
11999;Laerm;40817;51.520;9.954;2024-02-21T12:04:32;45.05;41.53;70.16;;
11999;Laerm;40817;51.520;9.954;2024-02-21T12:07:00;44.50;41.75;55.45;;
11999;Laerm;40817;51.520;9.954;2024-02-21T12:09:30;44.65;41.46;60.84;;
11999;Laerm;40817;51.520;9.954;2024-02-21T12:11:58;44.45;41.53;59.81;;
11999;Laerm;40817;51.520;9.954;2024-02-21T12:14:27;45.19;42.00;59.02;;
11999;Laerm;40817;51.520;9.954;2024-02-21T12:16:55;45.44;41.61;57.99;;
11999;Laerm;40817;51.520;9.954;2024-02-21T12:19:22;46.16;41.68;56.50;;
11999;Laerm;40817;51.520;9.954;2024-02-21T12:21:50;44.72;42.00;51.98;;
11999;Laerm;40817;51.520;9.954;2024-02-21T12:24:24;44.43;40.13;55.87;;
11999;Laerm;40817;51.520;9.954;2024-02-21T12:26:52;45.15;41.38;57.36;;
11999;Laerm;40817;51.520;9.954;2024-02-21T12:29:20;49.38;41.96;67.38;;
11999;Laerm;40817;51.520;9.954;2024-02-21T12:31:47;44.03;41.33;56.48;;
11999;Laerm;40817;51.520;9.954;2024-02-21T12:34:16;49.49;41.96;66.10;;
11999;Laerm;40817;51.520;9.954;2024-02-21T12:36:45;51.91;45.66;62.34;;
11999;Laerm;40817;51.520;9.954;2024-02-21T12:39:13;54.40;44.31;72.71;;
11999;Laerm;40817;51.520;9.954;2024-02-21T12:41:43;54.81;44.80;74.74;;
11999;Laerm;40817;51.520;9.954;2024-02-21T12:44:11;54.75;44.51;78.41;;
11999;Laerm;40817;51.520;9.954;2024-02-21T12:46:38;49.93;43.19;60.97;;
11999;Laerm;40817;51.520;9.954;2024-02-21T12:49:06;50.77;43.34;69.24;;
11999;Laerm;40817;51.520;9.954;2024-02-21T12:51:34;52.90;44.15;73.18;;
11999;Laerm;40817;51.520;9.954;2024-02-21T12:54:02;48.79;42.16;62.29;;
11999;Laerm;40817;51.520;9.954;2024-02-21T12:56:30;48.16;42.29;59.71;;
11999;Laerm;40817;51.520;9.954;2024-02-21T12:58:59;45.21;42.16;59.47;;
11999;Laerm;40817;51.520;9.954;2024-02-21T13:01:26;47.76;41.22;68.19;;
11999;Laerm;40817;51.520;9.954;2024-02-21T13:03:54;45.51;42.76;58.83;;
11999;Laerm;40817;51.520;9.954;2024-02-21T13:06:21;45.29;42.65;59.57;;
11999;Laerm;40817;51.520;9.954;2024-02-21T13:08:48;44.68;41.30;53.92;;
11999;Laerm;40817;51.520;9.954;2024-02-21T13:11:17;50.36;41.06;65.98;;
11999;Laerm;40817;51.520;9.954;2024-02-21T13:13:44;44.40;41.30;58.24;;
11999;Laerm;40817;51.520;9.954;2024-02-21T13:16:13;44.52;41.82;50.54;;
11999;Laerm;40817;51.520;9.954;2024-02-21T13:18:40;44.17;41.46;55.41;;
11999;Laerm;40817;51.520;9.954;2024-02-21T13:21:09;44.15;41.22;52.36;;
11999;Laerm;40817;51.520;9.954;2024-02-21T13:23:36;44.33;41.06;62.35;;
11999;Laerm;40817;51.520;9.954;2024-02-21T13:26:04;45.36;41.38;57.27;;
11999;Laerm;40817;51.520;9.954;2024-02-21T13:28:31;44.56;40.89;56.17;;
11999;Laerm;40817;51.520;9.954;2024-02-21T13:30:58;44.04;39.70;61.21;;
11999;Laerm;40817;51.520;9.954;2024-02-21T13:33:27;43.71;40.98;54.12;;
11999;Laerm;40817;51.520;9.954;2024-02-21T13:35:55;43.72;41.14;52.60;;
11999;Laerm;40817;51.520;9.954;2024-02-21T13:38:22;43.53;40.62;50.03;;
11999;Laerm;40817;51.520;9.954;2024-02-21T13:40:50;47.98;41.38;59.06;;
11999;Laerm;40817;51.520;9.954;2024-02-21T13:43:17;50.39;45.11;58.82;;
11999;Laerm;40817;51.520;9.954;2024-02-21T13:45:57;49.84;44.19;59.00;;
11999;Laerm;40817;51.520;9.954;2024-02-21T13:48:24;50.05;43.99;65.24;;
11999;Laerm;40817;51.520;9.954;2024-02-21T13:50:54;50.05;43.54;61.73;;
11999;Laerm;40817;51.520;9.954;2024-02-21T13:53:21;50.74;44.54;62.00;;
11999;Laerm;40817;51.520;9.954;2024-02-21T13:55:49;49.16;42.59;63.40;;